Time;durP1;ratioP1;P1;durP2;ratioP2;P2;SDS_P1;SDS_P2;PMS_P1;PMS_P2;Temp;Humidity;BMP_temperature;BMP_pressure;BME280_temperature;BME280_humidity;BME280_pressure;Samples;Min_cycle;Max_cycle;Signal;HPM_P1;HPM_P2
2023/01/31 00:01:22;;;;;;;25.20;12.73;;;;;;;-8.12;65.80;99600.19;4771938;30;20101;-82
2023/01/31 00:03:55;;;;;;;33.70;13.33;;;;;;;-8.18;66.12;99597.59;4787204;30;20047;-82
2023/01/31 00:06:27;;;;;;;35.20;14.55;;;;;;;-8.15;66.13;99604.53;4787207;30;20052;-82
2023/01/31 00:08:55;;;;;;;27.23;12.88;;;;;;;-8.24;66.20;99607.97;4757214;30;20050;-83
2023/01/31 00:11:23;;;;;;;25.50;11.82;;;;;;;-8.38;66.52;99592.47;4771913;30;20135;-83
2023/01/31 00:13:50;;;;;;;27.50;12.33;;;;;;;-8.36;66.25;99595.00;4787984;30;20133;-82
2023/01/31 00:16:17;;;;;;;33.95;10.98;;;;;;;-8.40;66.60;99611.47;4786973;30;20126;-83
2023/01/31 00:18:43;;;;;;;36.83;13.55;;;;;;;-8.45;66.78;99598.50;4786832;30;20059;-83
2023/01/31 00:21:16;;;;;;;19.10;8.70;;;;;;;-8.38;66.77;99607.16;4771820;30;20055;-82
2023/01/31 00:23:43;;;;;;;34.78;13.48;;;;;;;-8.43;66.39;99598.50;4786806;30;20377;-83
2023/01/31 00:26:16;;;;;;;29.05;12.35;;;;;;;-8.56;66.87;99593.31;4786546;30;20046;-84
2023/01/31 00:28:43;;;;;;;36.75;13.60;;;;;;;-8.57;67.01;99595.91;4759559;30;20187;-83
2023/01/31 00:31:13;;;;;;;31.55;13.50;;;;;;;-8.47;66.99;99604.53;4774782;30;20051;-83
2023/01/31 00:33:42;;;;;;;31.92;13.27;;;;;;;-8.47;66.90;99608.00;4786790;30;20087;-83
2023/01/31 00:36:12;;;;;;;35.55;13.85;;;;;;;-8.46;66.87;99614.94;4771651;30;20500;-84
2023/01/31 00:38:38;;;;;;;41.97;15.95;;;;;;;-8.45;66.92;99605.41;4787668;30;20047;-83
2023/01/31 00:41:05;;;;;;;36.88;15.10;;;;;;;-8.33;67.10;99615.75;4787723;29;20134;-84
2023/01/31 00:43:32;;;;;;;32.90;14.40;;;;;;;-8.23;66.88;99611.44;4786640;30;20415;-83
2023/01/31 00:45:58;;;;;;;31.60;13.32;;;;;;;-8.26;66.87;99609.72;4787517;29;20515;-85
2023/01/31 00:48:25;;;;;;;36.38;13.88;;;;;;;-8.31;66.71;99619.22;4771411;30;20086;-84
2023/01/31 00:50:51;;;;;;;36.95;14.45;;;;;;;-8.28;67.14;99624.38;4771372;30;20043;-83
2023/01/31 00:53:22;;;;;;;25.42;10.32;;;;;;;-8.25;66.71;99624.41;4786592;30;20043;-83
2023/01/31 00:55:52;;;;;;;34.80;13.95;;;;;;;-8.34;66.61;99614.03;4786943;30;20051;-83
2023/01/31 00:58:18;;;;;;;29.75;13.77;;;;;;;-8.28;66.54;99611.41;4787953;29;20051;-84
2023/01/31 01:00:44;;;;;;;29.63;14.60;;;;;;;-8.29;66.77;99601.91;4788034;30;20068;-83
2023/01/31 01:03:10;;;;;;;31.88;13.10;;;;;;;-8.22;66.48;99603.66;4756855;29;20051;-83
2023/01/31 01:05:36;;;;;;;26.75;11.90;;;;;;;-8.22;66.54;99608.84;4774855;30;20416;-82
2023/01/31 01:08:03;;;;;;;32.45;14.45;;;;;;;-8.20;66.23;99616.59;4789738;30;20085;-82
2023/01/31 01:10:29;;;;;;;32.53;14.50;;;;;;;-8.26;66.42;99617.50;4789406;29;20055;-82
2023/01/31 01:12:55;;;;;;;30.90;15.35;;;;;;;-8.29;66.42;99612.28;4789432;30;20515;-84
2023/01/31 01:15:20;;;;;;;37.97;10.73;;;;;;;-8.26;66.42;99622.66;4759943;30;20172;-82
2023/01/31 01:17:46;;;;;;;32.97;14.77;;;;;;;-8.29;66.22;99614.88;4778350;30;20043;-82
2023/01/31 01:20:12;;;;;;;37.78;16.02;;;;;;;-8.32;66.37;99609.69;4791976;30;20051;-83
2023/01/31 01:22:38;;;;;;;26.13;13.35;;;;;;;-8.35;66.38;99622.66;4789481;30;20062;-82
2023/01/31 01:25:05;;;;;;;38.75;15.68;;;;;;;-8.39;66.42;99610.59;4774745;30;20404;-83
2023/01/31 01:27:31;;;;;;;25.50;12.02;;;;;;;-8.53;66.56;99602.81;4774433;29;20481;-83
2023/01/31 01:29:57;;;;;;;31.98;14.40;;;;;;;-8.47;66.33;99610.59;4776716;30;20061;-83
2023/01/31 01:32:24;;;;;;;29.05;13.60;;;;;;;-8.53;66.65;99613.19;4788824;29;20159;-82
2023/01/31 01:34:51;;;;;;;25.17;12.63;;;;;;;-8.57;66.70;99624.41;4789244;30;20062;-84
2023/01/31 01:37:19;;;;;;;28.27;12.63;;;;;;;-8.69;66.75;99632.16;4759166;30;20137;-83
2023/01/31 01:39:47;;;;;;;37.23;14.07;;;;;;;-8.67;66.78;99627.84;4789304;30;20138;-83
2023/01/31 01:42:19;;;;;;;33.10;13.27;;;;;;;-8.73;66.66;99628.69;4774311;30;20508;-84
2023/01/31 01:44:58;;;;;;;31.50;13.90;;;;;;;-8.82;67.07;99615.72;4774214;30;20082;-83
2023/01/31 01:47:38;;;;;;;29.73;13.55;;;;;;;-8.81;66.96;99610.53;4789619;30;20093;-83
2023/01/31 01:50:28;;;;;;;31.20;14.23;;;;;;;-8.77;67.24;99619.19;4789187;30;20515;-83
2023/01/31 01:52:59;;;;;;;28.40;13.57;;;;;;;-8.79;67.02;99620.06;4789130;30;20583;-83
2023/01/31 01:55:31;;;;;;;31.45;12.60;;;;;;;-8.80;67.11;99624.34;4789066;30;20492;-83
2023/01/31 01:58:04;;;;;;;27.08;12.88;;;;;;;-8.78;67.03;99617.47;4774445;30;20580;-84
2023/01/31 02:00:32;;;;;;;28.52;12.20;;;;;;;-8.78;66.79;99614.88;4788894;29;20055;-83
2023/01/31 02:03:00;;;;;;;31.55;13.82;;;;;;;-8.82;66.59;99610.53;4789879;29;20419;-83
2023/01/31 02:05:45;;;;;;;30.00;12.30;;;;;;;-8.82;66.49;99611.41;4788910;30;20519;-84
2023/01/31 02:08:17;;;;;;;21.30;11.15;;;;;;;-8.84;66.76;99601.88;4773836;30;20064;-83
2023/01/31 02:10:43;;;;;;;17.60;9.43;;;;;;;-8.86;66.42;99616.59;4773635;30;20926;-83
2023/01/31 02:13:10;;;;;;;27.33;10.18;;;;;;;-8.95;66.34;99622.63;4788313;30;20134;-83
2023/01/31 02:15:36;;;;;;;21.35;10.45;;;;;;;-8.95;66.43;99629.50;4802854;29;20057;-82
2023/01/31 02:18:03;;;;;;;22.85;10.73;;;;;;;-8.94;66.22;99620.88;4788613;30;20104;-82
2023/01/31 02:20:43;;;;;;;23.15;10.38;;;;;;;-8.96;66.70;99622.59;4774849;30;20055;-84
2023/01/31 02:23:44;;;;;;;29.15;11.70;;;;;;;-8.93;66.30;99631.25;4760375;30;20051;-84
2023/01/31 02:26:35;;;;;;;22.52;10.43;;;;;;;-9.03;66.31;99626.03;4788842;30;20151;-86
2023/01/31 02:29:30;;;;;;;21.83;10.60;;;;;;;-9.01;66.40;99634.66;4778882;30;20067;-85
2023/01/31 02:32:15;;;;;;;25.23;10.55;;;;;;;-9.09;66.23;99622.56;4777647;30;20058;-85
2023/01/31 02:35:04;;;;;;;22.60;9.68;;;;;;;-9.17;66.12;99615.63;4775382;30;20047;-85
2023/01/31 02:37:49;;;;;;;22.42;10.82;;;;;;;-9.22;66.67;99620.78;4788453;29;20051;-85
2023/01/31 02:40:30;;;;;;;26.27;9.73;;;;;;;-9.26;66.45;99619.03;4773779;30;20081;-84
2023/01/31 02:43:31;;;;;;;26.58;10.82;;;;;;;-9.35;66.80;99621.59;4774228;30;20527;-84
2023/01/31 02:46:13;;;;;;;22.77;11.50;;;;;;;-9.32;66.94;99613.84;4773314;30;20059;-86
2023/01/31 02:48:56;;;;;;;18.80;9.18;;;;;;;-9.45;66.95;99581.00;4790065;30;20078;-89
2023/01/31 02:51:37;;;;;;;32.25;11.60;;;;;;;-9.37;66.74;99620.72;4771915;30;20051;-84
2023/01/31 02:54:19;;;;;;;24.90;11.75;;;;;;;-9.32;66.57;99609.53;4789327;30;20138;-86
2023/01/31 02:56:48;;;;;;;26.60;11.25;;;;;;;-9.36;66.95;99597.44;4758743;30;20580;-83
2023/01/31 02:59:25;;;;;;;20.67;9.13;;;;;;;-9.28;66.87;99600.06;4787959;30;20515;-82
2023/01/31 03:01:58;;;;;;;24.27;11.95;;;;;;;-9.41;66.65;99593.09;4787356;30;20428;-85
2023/01/31 03:04:30;;;;;;;17.33;8.82;;;;;;;-9.40;67.11;99600.88;4772822;30;20051;-85
2023/01/31 03:07:04;;;;;;;25.25;11.48;;;;;;;-9.46;66.76;99593.06;4787661;30;20065;-83
2023/01/31 03:09:50;;;;;;;19.02;10.43;;;;;;;-9.52;67.24;99594.75;4772829;30;20059;-84
2023/01/31 03:12:26;;;;;;;21.27;9.23;;;;;;;-9.64;67.32;99586.09;4787611;30;20051;-85
2023/01/31 03:15:17;;;;;;;27.45;11.88;;;;;;;-9.67;67.52;99606.75;4766168;30;20055;-82
2023/01/31 03:18:04;;;;;;;28.15;12.32;;;;;;;-9.66;67.58;99590.41;4771498;30;20060;-86
2023/01/31 03:20:43;;;;;;;21.02;9.95;;;;;;;-9.78;67.89;99603.25;4802656;29;20061;-84
2023/01/31 03:23:29;;;;;;;21.15;9.57;;;;;;;-9.88;68.10;99591.13;4788914;30;20104;-85
2023/01/31 03:25:59;;;;;;;30.05;12.88;;;;;;;-9.86;68.05;99615.28;4775861;30;20051;-84
2023/01/31 03:28:29;;;;;;;;;;;;;;;-9.95;68.49;99620.41;4773386;30;20047;-84
2023/01/31 03:31:29;;;;;;;31.05;12.77;;;;;;;-9.96;68.49;99636.78;4787474;30;19925;-81
2023/01/31 03:34:02;;;;;;;30.38;13.10;;;;;;;-9.86;68.70;99631.66;4772225;30;20051;-80
2023/01/31 03:36:58;;;;;;;29.70;13.57;;;;;;;-9.79;68.54;99637.72;4773000;30;20051;-84
2023/01/31 03:39:54;;;;;;;28.48;13.38;;;;;;;-9.69;68.56;99654.19;4788142;29;20063;-82
2023/01/31 03:42:51;;;;;;;43.85;16.25;;;;;;;-9.70;68.62;99635.22;4772882;30;20079;-84
2023/01/31 03:45:32;;;;;;;21.67;11.55;;;;;;;-9.77;68.63;99643.81;4772468;30;20047;-86
2023/01/31 03:48:02;;;;;;;37.33;16.17;;;;;;;-9.75;68.47;99633.44;4770757;30;20043;-82
2023/01/31 03:50:37;;;;;;;27.58;12.23;;;;;;;-9.71;68.38;99638.66;4801326;29;20047;-83
2023/01/31 03:53:19;;;;;;;32.83;13.57;;;;;;;-9.67;68.34;99642.97;4786910;30;20055;-84
2023/01/31 03:55:58;;;;;;;26.00;13.40;;;;;;;-9.67;68.22;99631.78;4762837;30;20051;-86
2023/01/31 03:58:29;;;;;;;27.38;13.40;;;;;;;-9.65;68.27;99635.25;4802225;29;20059;-84
2023/01/31 04:01:04;;;;;;;28.60;14.20;;;;;;;-9.54;68.08;99644.78;4756441;30;20062;-84
2023/01/31 04:03:42;;;;;;;23.38;12.18;;;;;;;-9.44;68.06;99642.25;4784388;30;20083;-85
2023/01/31 04:06:10;;;;;;;28.27;12.35;;;;;;;-9.54;67.76;99631.00;4756716;30;20079;-90
2023/01/31 04:08:37;;;;;;;22.23;10.18;;;;;;;-9.62;67.56;99641.31;4787079;30;20050;-89
2023/01/31 04:11:11;;;;;;;22.85;11.27;;;;;;;-9.63;67.67;99652.47;4755061;30;20055;-89
2023/01/31 04:13:39;;;;;;;25.40;10.95;;;;;;;-9.56;67.68;99667.19;4755522;30;20101;-87
2023/01/31 04:16:05;;;;;;;21.40;9.95;;;;;;;-9.48;67.63;99663.78;4772702;30;20052;-80
2023/01/31 04:18:40;;;;;;;23.00;10.18;;;;;;;-9.37;67.71;99659.53;4768651;30;20080;-83
2023/01/31 04:21:14;;;;;;;32.05;9.30;;;;;;;-9.31;67.30;99667.34;4755927;30;20424;-84
2023/01/31 04:23:40;;;;;;;28.58;10.57;;;;;;;-9.23;67.00;99668.25;4769780;30;20058;-86
2023/01/31 04:26:05;;;;;;;18.52;9.27;;;;;;;-9.21;66.90;99657.88;4771532;30;20142;-86
2023/01/31 04:28:31;;;;;;;48.30;10.68;;;;;;;-9.22;66.73;99667.38;4786240;29;20047;-88
2023/01/31 04:30:57;;;;;;;19.40;10.32;;;;;;;-9.00;67.60;99668.34;4794198;30;20059;-85
2023/01/31 04:33:23;;;;;;;22.63;10.48;;;;;;;-9.02;66.82;99664.03;4778835;30;20404;-85
2023/01/31 04:35:52;;;;;;;23.20;10.82;;;;;;;-8.88;66.52;99670.97;4772244;30;20143;-89
2023/01/31 04:38:18;;;;;;;21.05;10.30;;;;;;;-8.85;66.42;99662.34;4755109;30;20104;-83
2023/01/31 04:40:44;;;;;;;26.85;11.48;;;;;;;-8.78;65.88;99674.47;4761596;30;20108;-89
2023/01/31 04:43:12;;;;;;;17.75;10.27;;;;;;;-8.79;65.83;99667.56;4759919;30;20083;-88
2023/01/31 04:45:38;;;;;;;26.23;12.50;;;;;;;-8.74;65.67;99676.19;4795229;30;20201;-80
2023/01/31 04:48:05;;;;;;;17.65;9.70;;;;;;;-8.65;65.83;99665.88;4776759;30;20548;-86
2023/01/31 04:50:30;;;;;;;24.67;11.80;;;;;;;-8.54;65.66;99667.59;4775480;30;20044;-83
2023/01/31 04:52:56;;;;;;;26.58;11.05;;;;;;;-8.46;65.56;99673.66;4788216;30;20048;-82
2023/01/31 04:55:22;;;;;;;25.08;12.13;;;;;;;-8.35;65.23;99671.91;4787522;30;20138;-82
2023/01/31 04:57:48;;;;;;;21.13;10.73;;;;;;;-8.36;65.16;99667.59;4772084;30;20138;-81
2023/01/31 05:00:14;;;;;;;27.23;11.02;;;;;;;-8.27;65.03;99672.81;4757299;30;20197;-81
2023/01/31 05:02:40;;;;;;;23.15;11.00;;;;;;;-8.27;64.53;99671.91;4786965;30;20515;-85
2023/01/31 05:05:07;;;;;;;23.33;10.30;;;;;;;-8.37;64.52;99665.91;4756830;30;20055;-81
2023/01/31 05:07:33;;;;;;;12.90;7.93;;;;;;;-8.53;64.78;99677.13;4771687;30;20110;-79
2023/01/31 05:09:59;;;;;;;26.05;11.75;;;;;;;-8.38;64.96;99678.00;4772641;30;20055;-81
2023/01/31 05:12:25;;;;;;;27.55;10.15;;;;;;;-8.30;64.57;99665.03;4756760;30;20071;-83
2023/01/31 05:14:51;;;;;;;13.70;7.85;;;;;;;-8.25;64.43;99665.88;4771589;30;20103;-80
2023/01/31 05:17:24;;;;;;;19.98;9.73;;;;;;;-8.19;64.43;99678.00;4772547;30;20460;-82
2023/01/31 05:19:56;;;;;;;26.27;10.35;;;;;;;-8.03;64.67;99671.94;4756753;30;20116;-81
2023/01/31 05:22:23;;;;;;;25.42;10.20;;;;;;;-7.70;64.42;99672.81;4789613;29;20544;-82
2023/01/31 05:24:50;;;;;;;19.92;10.68;;;;;;;-7.64;63.69;99657.19;4774596;30;20450;-81
2023/01/31 05:27:17;;;;;;;20.08;9.88;;;;;;;-7.52;63.22;99671.88;4790244;29;20051;-81
2023/01/31 05:29:43;;;;;;;18.08;9.27;;;;;;;-7.52;62.79;99669.28;4785936;30;20051;-81
2023/01/31 05:32:09;;;;;;;18.77;8.48;;;;;;;-7.72;62.49;99670.19;4788520;29;20054;-82
2023/01/31 05:34:35;;;;;;;20.98;9.70;;;;;;;-7.57;62.97;99667.56;4771231;30;20048;-82
2023/01/31 05:37:01;;;;;;;16.00;6.88;;;;;;;-7.74;61.97;99668.50;4786322;30;20505;-80
2023/01/31 05:39:30;;;;;;;18.73;9.05;;;;;;;-7.41;64.32;99675.31;4771744;30;20416;-78
2023/01/31 05:41:56;;;;;;;19.08;8.43;;;;;;;-7.36;63.20;99673.59;4771834;30;20051;-82
2023/01/31 05:44:22;;;;;;;15.95;7.72;;;;;;;-7.26;62.14;99688.28;4786862;30;20451;-82
2023/01/31 05:46:48;;;;;;;14.02;5.82;;;;;;;-7.26;61.31;99679.63;4771109;30;20087;-84
2023/01/31 05:49:14;;;;;;;25.98;9.57;;;;;;;-7.27;61.42;99676.16;4786583;30;20090;-81
2023/01/31 05:51:41;;;;;;;13.35;7.35;;;;;;;-7.19;61.42;99664.00;4780507;30;20055;-80
2023/01/31 05:54:07;;;;;;;13.25;7.25;;;;;;;-7.18;61.08;99678.75;4773679;30;20070;-80
2023/01/31 05:56:33;;;;;;;19.90;9.57;;;;;;;-7.05;61.33;99687.34;4773539;30;20043;-79
2023/01/31 05:59:01;;;;;;;15.23;6.57;;;;;;;-7.14;60.43;99683.06;4788864;30;20051;-80
2023/01/31 06:01:27;;;;;;;19.60;7.63;;;;;;;-7.13;60.93;99687.38;4803295;29;20127;-79
2023/01/31 06:03:53;;;;;;;14.15;6.95;;;;;;;-7.01;60.86;99683.00;4788506;30;20051;-80
2023/01/31 06:06:20;;;;;;;14.07;6.85;;;;;;;-7.00;60.38;99658.75;4773554;30;20047;-80
2023/01/31 06:08:46;;;;;;;16.38;8.70;;;;;;;-6.85;60.48;99684.66;4788838;30;20451;-82
2023/01/31 06:11:13;;;;;;;14.80;8.10;;;;;;;-6.78;60.63;99677.72;4773477;30;20047;-81
2023/01/31 06:13:42;;;;;;;15.57;7.60;;;;;;;-6.82;59.99;99684.66;4773410;30;20057;-81
2023/01/31 06:16:08;;;;;;;10.68;6.20;;;;;;;-6.83;60.06;99672.53;4788376;30;20047;-80
2023/01/31 06:18:34;;;;;;;16.75;7.45;;;;;;;-6.67;61.09;99684.59;4758630;30;20083;-79
2023/01/31 06:21:01;;;;;;;11.98;6.00;;;;;;;-6.86;59.82;99664.75;4758182;30;20050;-80
2023/01/31 06:23:27;;;;;;;9.80;5.57;;;;;;;-6.83;59.46;99672.53;4788109;30;20530;-79
2023/01/31 06:25:54;;;;;;;15.05;6.97;;;;;;;-6.92;59.47;99664.78;4772584;30;20047;-84
2023/01/31 06:28:20;;;;;;;13.20;6.90;;;;;;;-6.93;59.93;99673.44;4802676;29;20083;-79
2023/01/31 06:30:47;;;;;;;16.13;7.32;;;;;;;-6.96;60.05;99665.66;4788144;29;20059;-81
2023/01/31 06:33:13;;;;;;;13.07;6.68;;;;;;;-6.86;60.07;99667.34;4802514;29;20051;-80
2023/01/31 06:35:39;;;;;;;16.85;9.45;;;;;;;-6.80;60.17;99672.53;4772708;30;20057;-78
2023/01/31 06:38:06;;;;;;;18.83;7.00;;;;;;;-6.77;59.92;99677.72;4787328;30;20081;-79
2023/01/31 06:40:32;;;;;;;18.75;7.18;;;;;;;-6.76;60.33;99671.66;4788789;29;20051;-82
2023/01/31 06:42:58;;;;;;;14.63;6.70;;;;;;;-6.73;60.13;99669.03;4772644;30;20047;-81
2023/01/31 06:45:24;;;;;;;13.20;6.72;;;;;;;-6.77;60.05;99666.44;4772332;30;20055;-81
2023/01/31 06:47:50;;;;;;;10.02;5.60;;;;;;;-6.82;60.47;99666.47;4802946;29;20440;-82
2023/01/31 06:50:16;;;;;;;13.27;6.78;;;;;;;-6.94;60.54;99663.94;4804236;29;20062;-83
2023/01/31 06:52:43;;;;;;;16.48;7.70;;;;;;;-6.88;60.56;99679.50;4788394;30;20435;-83
2023/01/31 06:55:10;;;;;;;19.30;8.45;;;;;;;-6.89;60.62;99675.16;4789766;30;20062;-85
2023/01/31 06:57:36;;;;;;;10.15;6.90;;;;;;;-6.89;60.90;99667.38;4788777;30;20134;-89
2023/01/31 07:00:03;;;;;;;19.85;9.02;;;;;;;-6.90;61.29;99658.72;4802556;29;20416;-86
2023/01/31 07:02:30;;;;;;;19.27;8.20;;;;;;;-6.77;60.79;99662.13;4787786;29;20565;-91
2023/01/31 07:04:56;;;;;;;19.13;9.18;;;;;;;-6.72;60.82;99665.56;4791690;29;20051;-87
2023/01/31 07:07:21;;;;;;;19.50;9.95;;;;;;;-6.74;60.97;99650.84;4786766;30;20051;-81
2023/01/31 07:09:47;;;;;;;12.18;6.85;;;;;;;-6.51;60.76;99668.91;4788468;30;20047;-81
2023/01/31 07:12:13;;;;;;;23.77;9.55;;;;;;;-6.50;60.68;99666.31;4787149;30;20047;-82
2023/01/31 07:14:39;;;;;;;20.48;9.27;;;;;;;-6.49;60.80;99672.38;4786695;30;20058;-80
2023/01/31 07:17:04;;;;;;;28.63;9.80;;;;;;;-6.45;60.93;99680.13;4787531;30;20104;-85
2023/01/31 07:19:30;;;;;;;24.40;10.38;;;;;;;-6.28;60.65;99667.03;4758211;30;20092;-80
2023/01/31 07:21:56;;;;;;;21.23;10.27;;;;;;;-6.05;60.38;99666.00;4788750;29;20055;-83
2023/01/31 07:24:27;;;;;;;21.48;10.57;;;;;;;-5.87;60.29;99663.19;4757131;30;20047;-81
2023/01/31 07:26:53;;;;;;;23.52;10.60;;;;;;;-5.62;59.36;99662.09;4787137;30;20079;-80
2023/01/31 07:29:19;;;;;;;23.13;10.00;;;;;;;-5.57;59.15;99659.44;4787819;29;20051;-82
2023/01/31 07:31:44;;;;;;;15.27;8.48;;;;;;;-5.36;58.92;99655.78;4801778;29;20520;-82
2023/01/31 07:34:10;;;;;;;23.15;10.63;;;;;;;-5.17;58.48;99652.06;4786947;30;20146;-81
2023/01/31 07:36:36;;;;;;;20.30;9.40;;;;;;;-5.04;58.17;99651.94;4786636;30;20043;-81
2023/01/31 07:39:02;;;;;;;17.08;8.15;;;;;;;-5.07;57.77;99647.63;4771317;30;20162;-79
2023/01/31 07:41:28;;;;;;;42.08;10.02;;;;;;;-5.32;57.55;99649.66;4771608;30;20095;-79
2023/01/31 07:43:54;;;;;;;20.90;10.25;;;;;;;-5.23;58.17;99652.16;4771528;30;20092;-79
2023/01/31 07:46:20;;;;;;;16.13;8.90;;;;;;;-5.07;57.81;99654.59;4786233;30;20055;-79
2023/01/31 07:48:46;;;;;;;18.25;9.70;;;;;;;-4.88;57.96;99658.69;4786343;30;20058;-80
2023/01/31 07:51:12;;;;;;;15.95;7.90;;;;;;;-4.88;56.76;99662.16;4771334;30;20047;-80
2023/01/31 07:53:41;;;;;;;20.77;9.10;;;;;;;-5.16;57.35;99669.44;4785737;30;20047;-80
2023/01/31 07:56:11;;;;;;;22.27;9.95;;;;;;;-5.17;57.70;99672.94;4784806;30;20385;-81
2023/01/31 07:58:38;;;;;;;14.60;7.72;;;;;;;-5.15;56.88;99657.28;4753460;30;20552;-82
2023/01/31 08:03:49;;;;;;;17.95;7.72;;;;;;;-5.38;57.79;99657.53;4771560;30;20047;-84
2023/01/31 08:06:15;;;;;;;14.60;7.25;;;;;;;-5.37;57.86;99659.28;4771546;30;20048;-80
2023/01/31 08:08:42;;;;;;;17.15;8.15;;;;;;;-5.26;57.47;99662.63;4785390;30;20047;-82
2023/01/31 08:11:08;;;;;;;13.80;7.38;;;;;;;-5.29;57.14;99657.44;4764941;30;20044;-81
2023/01/31 08:13:35;;;;;;;16.92;7.70;;;;;;;-5.34;58.42;99659.25;4754379;30;20056;-79
2023/01/31 08:16:03;;;;;;;16.80;7.88;;;;;;;-5.53;59.03;99661.16;4773619;30;20052;-83
2023/01/31 08:18:29;;;;;;;17.17;7.53;;;;;;;-5.46;58.67;99651.53;4757471;30;20545;-77
2023/01/31 08:20:56;;;;;;;19.20;9.35;;;;;;;-5.36;58.29;99655.78;4757533;30;20135;-82
2023/01/31 08:23:23;;;;;;;26.23;9.07;;;;;;;-5.23;58.30;99656.50;4757072;30;20083;-83
2023/01/31 08:25:48;;;;;;;15.77;8.55;;;;;;;-5.26;57.73;99652.19;4757922;30;20055;-81
2023/01/31 08:28:15;;;;;;;21.30;10.23;;;;;;;-5.22;58.05;99674.75;4772339;30;20390;-81
2023/01/31 08:30:42;;;;;;;18.33;9.93;;;;;;;-5.08;58.18;99660.66;4774709;30;20051;-83
2023/01/31 08:33:10;;;;;;;21.13;9.43;;;;;;;-4.90;57.66;99657.84;4765454;30;20047;-82
2023/01/31 08:35:36;;;;;;;24.65;11.43;;;;;;;-4.88;57.54;99653.50;4794723;30;20109;-81
2023/01/31 08:38:03;;;;;;;22.88;10.93;;;;;;;-4.85;57.52;99653.44;4775474;30;20072;-82
2023/01/31 08:40:29;;;;;;;14.70;7.78;;;;;;;-5.04;57.34;99663.25;4789186;30;20055;-80
2023/01/31 08:42:59;;;;;;;24.30;12.10;;;;;;;-5.08;57.87;99664.13;4788809;30;20108;-78
2023/01/31 08:45:29;;;;;;;20.70;10.23;;;;;;;-5.00;57.53;99651.00;4774962;30;20055;-79
2023/01/31 08:47:57;;;;;;;24.85;13.93;;;;;;;-4.91;57.86;99657.00;4759067;30;20043;-80
2023/01/31 08:50:25;;;;;;;21.05;11.43;;;;;;;-5.01;57.18;99641.47;4789156;30;20051;-81
2023/01/31 08:52:55;;;;;;;26.45;14.13;;;;;;;-4.76;57.70;99647.25;4758779;30;20047;-82
2023/01/31 08:55:22;;;;;;;24.60;12.88;;;;;;;-4.42;57.13;99656.31;4804699;29;20055;-81
2023/01/31 08:57:48;;;;;;;20.20;10.82;;;;;;;-4.21;56.44;99655.16;4789578;30;20043;-80
2023/01/31 09:00:15;;;;;;;22.23;11.05;;;;;;;-4.18;55.66;99662.06;4789356;30;20059;-82
2023/01/31 09:02:41;;;;;;;25.75;9.75;;;;;;;-4.18;55.57;99673.34;4789048;30;20077;-81
2023/01/31 09:05:07;;;;;;;21.70;8.60;;;;;;;-4.19;54.87;99663.81;4804296;29;20504;-79
2023/01/31 09:07:34;;;;;;;17.67;7.50;;;;;;;-4.15;54.66;99673.31;4803503;29;20047;-79
2023/01/31 09:10:00;;;;;;;14.80;7.13;;;;;;;-4.08;54.46;99681.06;4804027;29;20051;-77
2023/01/31 09:12:26;;;;;;;18.33;7.25;;;;;;;-3.69;54.43;99677.78;4790295;29;20137;-82
2023/01/31 09:14:54;;;;;;;13.38;7.18;;;;;;;-3.63;53.71;99676.00;4759361;30;20142;-81
2023/01/31 09:17:29;;;;;;;14.07;7.03;;;;;;;-3.73;53.58;99677.88;4774460;30;20051;-83
2023/01/31 09:19:56;;;;;;;16.48;6.95;;;;;;;-3.72;53.50;99683.09;4803911;29;20142;-82
2023/01/31 09:22:22;;;;;;;13.02;6.63;;;;;;;-3.41;53.64;99682.56;4788497;30;20047;-83
2023/01/31 09:24:48;;;;;;;15.90;7.13;;;;;;;-3.27;52.23;99680.56;4788568;29;20466;-83
2023/01/31 09:27:14;;;;;;;13.98;6.32;;;;;;;-2.91;53.01;99682.50;4788793;30;20058;-83
2023/01/31 09:29:42;;;;;;;13.63;6.65;;;;;;;-2.93;51.45;99685.16;4789753;29;20536;-81
2023/01/31 09:32:07;;;;;;;11.80;6.72;;;;;;;-3.12;51.61;99673.31;4790091;30;20057;-80
2023/01/31 09:34:33;;;;;;;15.27;6.85;;;;;;;-2.90;52.50;99686.81;4788584;30;20146;-81
2023/01/31 09:36:59;;;;;;;13.27;5.85;;;;;;;-2.89;51.56;99686.81;4758194;30;20058;-79
2023/01/31 09:39:26;;;;;;;12.18;5.97;;;;;;;-2.95;51.90;99676.47;4788807;30;20061;-81
2023/01/31 09:41:59;;;;;;;15.95;6.78;;;;;;;-2.90;51.39;99679.84;4788560;30;20079;-80
2023/01/31 09:44:32;;;;;;;12.20;6.65;;;;;;;-2.86;51.88;99671.03;4743875;30;20058;-80
2023/01/31 09:47:13;;;;;;;12.13;6.93;;;;;;;-2.67;51.90;99681.13;4773274;30;20043;-80
2023/01/31 09:49:53;;;;;;;13.73;6.22;;;;;;;-2.70;51.30;99680.31;4774007;30;20062;-79
2023/01/31 09:52:21;;;;;;;16.98;7.50;;;;;;;-2.54;51.60;99683.47;4787643;30;20074;-81
2023/01/31 09:54:47;;;;;;;17.67;6.15;;;;;;;-2.58;51.24;99681.81;4787535;30;20058;-82
2023/01/31 09:58:02;;;;;;;16.10;7.40;;;;;;;-2.85;51.27;99682.38;4788323;30;20512;-80
2023/01/31 10:00:32;;;;;;;19.13;7.03;;;;;;;-2.76;51.64;99677.81;4760294;30;20547;-81
2023/01/31 10:03:25;;;;;;;13.63;6.90;;;;;;;-2.82;51.35;99688.41;4789250;29;20047;-82
2023/01/31 10:06:02;;;;;;;17.13;5.60;;;;;;;-2.78;50.82;99684.84;4758133;30;20055;-82
2023/01/31 10:08:48;;;;;;;13.27;7.00;;;;;;;-2.72;51.57;99689.94;4758773;30;20043;-80
2023/01/31 10:11:35;;;;;;;16.85;7.00;;;;;;;-2.59;51.66;99679.22;4758905;30;20089;-81
2023/01/31 10:14:49;;;;;;;15.25;8.13;;;;;;;-2.45;51.29;99688.47;4786655;30;20051;-81
2023/01/31 10:17:32;;;;;;;15.95;6.35;;;;;;;-2.40;50.38;99691.03;4736947;30;20059;-81
2023/01/31 10:20:16;;;;;;;13.63;6.65;;;;;;;-2.39;50.45;99687.50;4736725;30;20549;-84
2023/01/31 10:23:03;;;;;;;13.05;6.07;;;;;;;-2.34;50.19;99690.00;4774617;30;20063;-80
2023/01/31 10:26:01;;;;;;;10.13;5.78;;;;;;;-2.48;50.36;99704.28;4773048;30;20051;-81
2023/01/31 10:28:30;;;;;;;16.63;6.35;;;;;;;-2.58;50.61;99694.03;4787342;29;20062;-79
2023/01/31 10:31:05;;;;;;;11.52;6.50;;;;;;;-2.39;50.89;99695.34;4786356;30;20101;-80
2023/01/31 10:33:54;;;;;;;19.25;6.88;;;;;;;-2.36;50.27;99686.59;4757932;30;20047;-80
2023/01/31 10:36:53;;;;;;;15.35;5.75;;;;;;;-2.51;50.45;99695.63;4756946;30;20051;-78
2023/01/31 10:39:27;;;;;;;15.00;7.13;;;;;;;-2.59;50.58;99702.78;4772646;30;20055;-80
2023/01/31 10:41:53;;;;;;;12.20;6.45;;;;;;;-2.49;50.81;99712.13;4787891;30;20047;-80
2023/01/31 10:44:26;;;;;;;14.50;6.50;;;;;;;-2.57;50.68;99707.06;4788762;29;20039;-80
2023/01/31 10:46:57;;;;;;;11.73;5.30;;;;;;;-2.46;50.30;99720.78;4787883;29;20051;-80
2023/01/31 10:49:25;;;;;;;12.90;6.70;;;;;;;-2.43;49.58;99705.94;4778546;30;20097;-80
2023/01/31 10:52:15;;;;;;;12.38;5.38;;;;;;;-2.25;49.87;99722.09;4771260;30;20087;-82
2023/01/31 10:55:10;;;;;;;13.57;6.82;;;;;;;-2.05;50.51;99712.94;4780938;30;20047;-81
2023/01/31 10:57:38;;;;;;;11.65;5.88;;;;;;;-2.06;49.35;99719.06;4765532;30;20043;-80
2023/01/31 11:00:06;;;;;;;8.70;5.57;;;;;;;-2.16;49.36;99720.16;4755103;30;20595;-82
2023/01/31 11:02:32;;;;;;;10.68;5.75;;;;;;;-1.88;49.55;99721.28;4784864;30;20112;-79
2023/01/31 11:04:59;;;;;;;14.38;6.13;;;;;;;-1.89;48.90;99701.19;4786095;30;20047;-79
2023/01/31 11:07:29;;;;;;;9.48;5.82;;;;;;;-1.86;49.06;99724.69;4787010;30;20055;-78
2023/01/31 11:09:56;;;;;;;12.82;6.43;;;;;;;-2.12;49.38;99696.50;4802191;29;20138;-77
2023/01/31 11:12:50;;;;;;;25.75;7.80;;;;;;;-1.96;49.69;99715.31;4786584;30;20043;-81
2023/01/31 11:15:18;;;;;;;10.35;6.40;;;;;;;-1.86;49.22;99716.00;4801835;29;20051;-79
2023/01/31 11:17:51;;;;;;;12.63;6.32;;;;;;;-2.08;48.93;99708.63;4770864;30;20051;-81
2023/01/31 11:20:22;;;;;;;18.88;5.85;;;;;;;-2.24;49.61;99713.34;4768561;30;20067;-78
2023/01/31 11:22:48;;;;;;;8.43;4.90;;;;;;;-2.34;49.65;99732.75;4769218;30;20544;-78
2023/01/31 11:25:20;;;;;;;11.45;5.60;;;;;;;-2.31;49.52;99711.75;4754763;30;20056;-80
2023/01/31 11:27:48;;;;;;;9.55;5.40;;;;;;;-2.17;49.31;99718.47;4781111;29;20044;-80
2023/01/31 11:30:25;;;;;;;12.23;5.75;;;;;;;-2.15;49.39;99711.41;4771830;30;20090;-83
2023/01/31 11:32:51;;;;;;;10.75;6.22;;;;;;;-2.15;49.15;99716.66;4771511;30;20061;-79
2023/01/31 11:35:17;;;;;;;12.35;6.60;;;;;;;-2.55;49.68;99728.00;4771439;30;20094;-78
2023/01/31 11:37:56;;;;;;;11.60;6.25;;;;;;;-2.94;50.30;99725.25;4771451;30;20088;-80
2023/01/31 11:40:31;;;;;;;10.95;6.13;;;;;;;-2.99;51.04;99716.66;4785795;30;20055;-80
2023/01/31 11:43:13;;;;;;;15.77;6.15;;;;;;;-2.83;51.35;99719.81;4771195;30;20547;-79